createdAt,value
2017-05-28T00:00:39.251Z,43.26
2017-05-28T00:01:19.849Z,43.26
2017-05-28T00:02:00.444Z,43.16
2017-05-28T00:02:41.027Z,43.26
2017-05-28T00:03:21.617Z,43.26
2017-05-28T00:04:02.202Z,43.16
2017-05-28T00:04:42.780Z,43.16
2017-05-28T00:05:23.376Z,43.74
2017-05-28T00:06:03.949Z,43.64
2017-05-28T00:06:44.535Z,43.45
2017-05-28T00:07:25.111Z,43.26
2017-05-28T00:08:05.698Z,43.54
2017-05-28T00:08:46.304Z,43.35
2017-05-28T00:09:26.870Z,43.64
2017-05-28T00:10:07.479Z,43.64
2017-05-28T00:10:48.028Z,44.12
2017-05-28T00:11:28.612Z,43.93
2017-05-28T00:12:09.219Z,43.93
2017-05-28T00:12:49.801Z,43.91
2017-05-28T00:13:30.392Z,44.12
2017-05-28T00:14:10.987Z,44.02
2017-05-28T00:14:51.566Z,44.02
2017-05-28T00:15:32.158Z,44.12
2017-05-28T00:16:12.744Z,44.1
2017-05-28T00:16:53.330Z,44.02
2017-05-28T00:17:33.931Z,44.12
2017-05-28T00:18:14.538Z,44.1
2017-05-28T00:18:55.125Z,44.12
2017-05-28T00:19:35.727Z,44.22
2017-05-28T00:20:16.326Z,44.38
2017-05-28T00:20:56.924Z,44.48
2017-05-28T00:21:37.506Z,44.96
2017-05-28T00:22:18.089Z,44.22
2017-05-28T00:22:58.670Z,44.48
2017-05-28T00:23:39.254Z,45.06
2017-05-28T00:24:19.841Z,45.25
2017-05-28T00:25:00.439Z,45.45
2017-05-28T00:25:41.030Z,44.96
2017-05-28T00:26:21.622Z,44.87
2017-05-28T00:27:02.190Z,44.58
2017-05-28T00:27:42.777Z,44.68
2017-05-28T00:28:23.353Z,45.25
2017-05-28T00:29:03.943Z,44.96
2017-05-28T00:29:44.559Z,45.25
2017-05-28T00:30:25.151Z,45.54
2017-05-28T00:31:05.737Z,45.54
2017-05-28T00:31:46.308Z,45.83
2017-05-28T00:32:26.907Z,45.83
2017-05-28T00:33:07.485Z,45.35
2017-05-28T00:33:48.095Z,45.45
2017-05-28T00:34:28.670Z,45.15
2017-05-28T00:35:09.260Z,44.96
2017-05-28T00:35:49.830Z,45.25
2017-05-28T00:36:30.446Z,45.45
2017-05-28T00:37:11.046Z,45.83
2017-05-28T00:37:51.675Z,45.64
2017-05-28T00:38:32.267Z,45.45
2017-05-28T00:39:12.843Z,45.45
2017-05-28T00:39:53.445Z,45.25
2017-05-28T00:40:34.037Z,45.06
2017-05-28T00:41:14.626Z,45.15
2017-05-28T00:41:55.216Z,45.15
2017-05-28T00:42:35.803Z,45.25
2017-05-28T00:43:16.390Z,45.64
2017-05-28T00:43:56.988Z,45.64
2017-05-28T00:44:37.568Z,45.73
2017-05-28T00:45:18.142Z,46.02
2017-05-28T00:45:58.736Z,45.73
2017-05-28T00:46:39.328Z,46.5
2017-05-28T00:47:19.933Z,47.05
2017-05-28T00:48:00.551Z,46.19
2017-05-28T00:48:41.145Z,46.41
2017-05-28T00:49:21.743Z,46.41
2017-05-28T00:50:02.314Z,46.38
2017-05-28T00:50:42.899Z,46.19
2017-05-28T00:51:23.475Z,46.48
2017-05-28T00:52:04.091Z,46.19
2017-05-28T00:52:44.672Z,46.48
2017-05-28T00:53:25.263Z,46.5
2017-05-28T00:54:05.844Z,46.67
2017-05-28T00:54:46.418Z,46.86
2017-05-28T00:55:27.023Z,46.86
2017-05-28T00:56:07.608Z,46.77
2017-05-28T00:56:48.191Z,46.96
2017-05-28T00:57:28.790Z,46.77
2017-05-28T00:58:09.379Z,46.38
2017-05-28T00:58:49.962Z,46.86
2017-05-28T00:59:30.540Z,46.77
2017-05-28T01:00:11.184Z,46.96
2017-05-28T01:00:51.771Z,47.15
2017-05-28T01:01:32.356Z,46.77
2017-05-28T01:02:12.944Z,46.96
2017-05-28T01:02:53.525Z,46.96
2017-05-28T01:03:34.133Z,46.86
2017-05-28T01:04:14.720Z,46.77
2017-05-28T01:04:55.292Z,47.05
2017-05-28T01:05:35.933Z,47.63
2017-05-28T01:06:16.524Z,47.63
2017-05-28T01:06:57.126Z,47.25
2017-05-28T01:07:37.707Z,47.15
2017-05-28T01:08:18.297Z,46.96
2017-05-28T01:08:58.878Z,47.63
2017-05-28T01:09:39.479Z,47.15
2017-05-28T01:10:20.058Z,47.44
2017-05-28T01:11:00.670Z,47.63
2017-05-28T01:11:41.280Z,47.15
2017-05-28T01:12:21.870Z,47.34
2017-05-28T01:13:02.465Z,47.53
2017-05-28T01:13:43.067Z,47.44
2017-05-28T01:14:23.675Z,47.53
2017-05-28T01:15:04.254Z,47.53
2017-05-28T01:15:44.832Z,47.25
2017-05-28T01:16:25.423Z,48.21
2017-05-28T01:17:06.013Z,47.63
2017-05-28T01:17:46.597Z,47.63
2017-05-28T01:18:27.178Z,47.82
2017-05-28T01:19:07.766Z,47.63
2017-05-28T01:19:48.355Z,47.63
2017-05-28T01:20:28.928Z,47.63
2017-05-28T01:21:09.511Z,47.63
2017-05-28T01:21:50.091Z,47.53
2017-05-28T01:22:30.689Z,48.11
2017-05-28T01:23:11.274Z,47.25
2017-05-28T01:23:51.853Z,47.44
2017-05-28T01:24:32.434Z,47.63
2017-05-28T01:25:13.002Z,48.21
2017-05-28T01:25:53.596Z,48.21
2017-05-28T01:26:34.185Z,48.11
2017-05-28T01:27:14.769Z,48.02
2017-05-28T01:27:55.352Z,48.11
2017-05-28T01:28:35.972Z,48.11
2017-05-28T01:29:16.553Z,48.02
2017-05-28T01:29:57.132Z,48.3
2017-05-28T01:30:37.719Z,48.3
2017-05-28T01:31:18.294Z,48.3
2017-05-28T01:31:58.891Z,48.3
2017-05-28T01:32:39.471Z,48.3
2017-05-28T01:33:20.057Z,47.92
2017-05-28T01:34:00.636Z,48.3
2017-05-28T01:34:41.229Z,48.4
2017-05-28T01:35:21.809Z,48.21
2017-05-28T01:36:02.406Z,48.11
2017-05-28T01:36:43.004Z,48.4
2017-05-28T01:37:23.607Z,48.21
2017-05-28T01:38:04.219Z,48.21
2017-05-28T01:38:44.820Z,48.4
2017-05-28T01:39:25.398Z,48.3
2017-05-28T01:40:05.983Z,48.4
2017-05-28T01:40:46.578Z,48.11
2017-05-28T01:41:27.160Z,48.4
2017-05-28T01:42:07.746Z,48.4
2017-05-28T01:42:48.330Z,48.21
2017-05-28T01:43:28.933Z,48.11
2017-05-28T01:44:09.520Z,48.02
2017-05-28T01:44:50.101Z,48.59
2017-05-28T01:45:30.702Z,49.07
2017-05-28T01:46:11.279Z,49.07
2017-05-28T01:46:51.869Z,49.26
2017-05-28T01:47:32.449Z,48.88
2017-05-28T01:48:13.027Z,49.55
2017-05-28T01:48:53.612Z,49.36
2017-05-28T01:49:34.214Z,48.66
2017-05-28T01:50:14.796Z,48.95
2017-05-28T01:50:55.384Z,48.76
2017-05-28T01:51:35.976Z,49.05
2017-05-28T01:52:16.548Z,49.33
2017-05-28T01:52:57.137Z,49.74
2017-05-28T01:53:37.718Z,49.24
2017-05-28T01:54:18.306Z,49.62
2017-05-28T01:54:58.888Z,49.24
2017-05-28T01:55:39.466Z,49.15
2017-05-28T01:56:20.068Z,49.62
2017-05-28T01:57:00.666Z,49.52
2017-05-28T01:57:41.257Z,50.39
2017-05-28T01:58:21.875Z,50.1
2017-05-28T01:59:02.468Z,49.33
2017-05-28T01:59:43.046Z,49.62
2017-05-28T02:00:23.680Z,49.52
2017-05-28T02:01:04.214Z,50.1
2017-05-28T02:01:44.804Z,50.49
2017-05-28T02:02:25.400Z,50.58
2017-05-28T02:03:06.003Z,50.39
2017-05-28T02:03:46.597Z,50.49
2017-05-28T02:04:27.189Z,50.29
2017-05-28T02:05:07.790Z,50.29
2017-05-28T02:05:48.381Z,50.29
2017-05-28T02:06:28.962Z,50.39
2017-05-28T02:07:09.539Z,50.39
2017-05-28T02:07:50.131Z,50.39
2017-05-28T02:08:30.716Z,50.29
2017-05-28T02:09:11.295Z,50.29
2017-05-28T02:09:51.884Z,50.39
2017-05-28T02:10:32.460Z,50.49
2017-05-28T02:11:13.041Z,50.58
2017-05-28T02:11:53.630Z,50.58
2017-05-28T02:12:34.231Z,50.58
2017-05-28T02:13:14.808Z,50.68
2017-05-28T02:13:55.419Z,50.68
2017-05-28T02:14:36.018Z,50.68
2017-05-28T02:15:16.605Z,50.78
2017-05-28T02:15:57.201Z,50.87
2017-05-28T02:16:37.779Z,50.87
2017-05-28T02:17:18.369Z,50.49
2017-05-28T02:17:58.947Z,50.58
2017-05-28T02:18:39.530Z,50.68
2017-05-28T02:19:20.119Z,50.78
2017-05-28T02:20:00.699Z,51.06
2017-05-28T02:20:41.285Z,51.25
2017-05-28T02:21:21.884Z,51.45
2017-05-28T02:22:02.472Z,51.54
2017-05-28T02:22:43.049Z,51.54
2017-05-28T02:23:23.640Z,51.06
2017-05-28T02:24:04.217Z,51.25
2017-05-28T02:24:44.816Z,51.06
2017-05-28T02:25:25.403Z,51.16
2017-05-28T02:26:05.991Z,51.25
2017-05-28T02:26:46.590Z,51.25
2017-05-28T02:27:27.176Z,51.25
2017-05-28T02:28:07.760Z,51.25
2017-05-28T02:28:48.338Z,51.45
2017-05-28T02:29:28.921Z,51.25
2017-05-28T02:30:09.507Z,51.45
2017-05-28T02:30:50.087Z,51.35
2017-05-28T02:31:30.665Z,52.22
2017-05-28T02:32:11.245Z,52.02
2017-05-28T02:32:51.819Z,51.83
2017-05-28T02:33:32.405Z,51.9
2017-05-28T02:34:12.981Z,51.81
2017-05-28T02:34:53.564Z,51.61
2017-05-28T02:35:34.151Z,51.81
2017-05-28T02:36:14.734Z,51.9
2017-05-28T02:36:55.317Z,51.9
2017-05-28T02:37:35.941Z,52.19
2017-05-28T02:38:16.525Z,52.48
2017-05-28T02:38:57.124Z,52
2017-05-28T02:39:37.716Z,52.28
2017-05-28T02:40:18.317Z,52.28
2017-05-28T02:40:58.902Z,52.57
2017-05-28T02:41:39.493Z,52.48
2017-05-28T02:42:20.103Z,52.38
2017-05-28T02:43:00.697Z,52.57
2017-05-28T02:43:41.287Z,52.95
2017-05-28T02:44:21.876Z,53.05
2017-05-28T02:45:02.466Z,52.76
2017-05-28T02:45:43.045Z,52.48
2017-05-28T02:46:23.629Z,52.76
2017-05-28T02:47:04.220Z,52.95
2017-05-28T02:47:44.808Z,52.57
2017-05-28T02:48:25.393Z,52.48
2017-05-28T02:49:05.989Z,53.05
2017-05-28T02:49:46.558Z,52.95
2017-05-28T02:50:27.135Z,52.86
2017-05-28T02:51:07.746Z,53.05
2017-05-28T02:51:48.351Z,53.05
2017-05-28T02:52:28.941Z,52.95
2017-05-28T02:53:09.529Z,52.95
2017-05-28T02:53:50.191Z,53.34
2017-05-28T02:54:30.769Z,53.44
2017-05-28T02:55:11.356Z,53.34
2017-05-28T02:55:51.974Z,53.63
2017-05-28T02:56:32.550Z,53.53
2017-05-28T02:57:13.140Z,53.53
2017-05-28T02:57:53.760Z,53.63
2017-05-28T02:58:34.344Z,53.05
2017-05-28T02:59:14.930Z,53.34
2017-05-28T02:59:55.513Z,53.63
2017-05-28T03:00:36.097Z,53.5
2017-05-28T03:01:16.671Z,53.31
2017-05-28T03:01:57.254Z,53.79
2017-05-28T03:02:37.842Z,53.15
2017-05-28T03:03:18.431Z,53.79
2017-05-28T03:03:59.013Z,53.79
2017-05-28T03:04:39.600Z,53.5
2017-05-28T03:05:20.207Z,53.41
2017-05-28T03:06:00.799Z,53.34
2017-05-28T03:06:41.376Z,53.22
2017-05-28T03:07:22.011Z,53.79
2017-05-28T03:08:02.573Z,53.72
2017-05-28T03:08:43.159Z,53.6
2017-05-28T03:09:23.760Z,53.7
2017-05-28T03:10:04.359Z,53.99
2017-05-28T03:10:44.956Z,54.17
2017-05-28T03:11:25.552Z,53.99
2017-05-28T03:12:06.154Z,54.08
2017-05-28T03:12:46.728Z,54.37
2017-05-28T03:13:27.340Z,53.99
2017-05-28T03:14:07.926Z,54.56
2017-05-28T03:14:48.512Z,54.56
2017-05-28T03:15:29.086Z,54.66
2017-05-28T03:16:09.680Z,54.56
2017-05-28T03:16:50.256Z,54.66
2017-05-28T03:17:30.852Z,54.85
2017-05-28T03:18:11.441Z,54.75
2017-05-28T03:18:52.021Z,55.04
2017-05-28T03:19:32.604Z,54.75
2017-05-28T03:20:13.188Z,54.46
2017-05-28T03:20:53.803Z,54.94
2017-05-28T03:21:34.382Z,54.85
2017-05-28T03:22:14.991Z,54.85
2017-05-28T03:22:55.619Z,54.94
2017-05-28T03:23:36.209Z,54.85
2017-05-28T03:24:16.811Z,54.94
2017-05-28T03:24:57.402Z,54.94
2017-05-28T03:25:37.998Z,54.94
2017-05-28T03:26:18.600Z,54.75
2017-05-28T03:26:59.176Z,54.75
2017-05-28T03:27:39.787Z,54.75
2017-05-28T03:28:20.382Z,54.85
2017-05-28T03:29:00.961Z,54.94
2017-05-28T03:29:41.556Z,54.75
2017-05-28T03:30:22.172Z,55.52
2017-05-28T03:31:02.764Z,55.23
2017-05-28T03:31:43.355Z,55.71
2017-05-28T03:32:23.945Z,55.33
2017-05-28T03:33:04.536Z,55.23
2017-05-28T03:33:45.116Z,55.13
2017-05-28T03:34:25.715Z,55.23
2017-05-28T03:35:06.302Z,55.33
2017-05-28T03:35:46.890Z,55.23
2017-05-28T03:36:27.474Z,55.13
2017-05-28T03:37:08.075Z,55.42
2017-05-28T03:37:48.655Z,55.3
2017-05-28T03:38:29.266Z,55.42
2017-05-28T03:39:09.857Z,55.13
2017-05-28T03:39:50.444Z,55.33
2017-05-28T03:40:31.028Z,55.62
2017-05-28T03:41:11.613Z,55.8
2017-05-28T03:41:52.221Z,55.52
2017-05-28T03:42:32.792Z,55.62
2017-05-28T03:43:13.394Z,55.71
2017-05-28T03:43:53.972Z,56
2017-05-28T03:44:34.567Z,55.71
2017-05-28T03:45:15.151Z,55.71
2017-05-28T03:45:55.729Z,56.19
2017-05-28T03:46:36.349Z,56.19
2017-05-28T03:47:16.940Z,55.9
2017-05-28T03:47:57.525Z,55.71
2017-05-28T03:48:38.101Z,55.62
2017-05-28T03:49:18.700Z,55.8
2017-05-28T03:49:59.279Z,55.9
2017-05-28T03:50:39.912Z,55.9
2017-05-28T03:51:20.492Z,56.19
2017-05-28T03:52:01.090Z,55.9
2017-05-28T03:52:41.670Z,56.19
2017-05-28T03:53:22.252Z,56
2017-05-28T03:54:02.838Z,56.19
2017-05-28T03:54:43.435Z,56.09
2017-05-28T03:55:24.046Z,55.9
2017-05-28T03:56:04.627Z,56.07
2017-05-28T03:56:45.212Z,56.29
2017-05-28T03:57:25.797Z,56.54
2017-05-28T03:58:06.376Z,56.38
2017-05-28T03:58:46.964Z,56.67
2017-05-28T03:59:27.547Z,56.09
2017-05-28T04:00:08.129Z,56
2017-05-28T04:00:48.754Z,56.29
2017-05-28T04:01:29.334Z,56.45
2017-05-28T04:02:09.941Z,56.67
2017-05-28T04:02:50.539Z,56.48
2017-05-28T04:03:31.120Z,56
2017-05-28T04:04:11.730Z,56.09
2017-05-28T04:04:52.313Z,56.38
2017-05-28T04:05:32.891Z,56.57
2017-05-28T04:06:13.509Z,56.57
2017-05-28T04:06:54.091Z,56.67
2017-05-28T04:07:34.664Z,56.86
2017-05-28T04:08:15.253Z,56.86
2017-05-28T04:08:55.841Z,56.38
2017-05-28T04:09:36.418Z,56.57
2017-05-28T04:10:17.003Z,56.45
2017-05-28T04:10:57.596Z,56.26
2017-05-28T04:11:38.201Z,56.64
2017-05-28T04:12:18.773Z,56.45
2017-05-28T04:12:59.368Z,56.45
2017-05-28T04:13:39.950Z,56.45
2017-05-28T04:14:20.532Z,56.35
2017-05-28T04:15:01.126Z,56.45
2017-05-28T04:15:41.705Z,56.16
2017-05-28T04:16:22.294Z,56.64
2017-05-28T04:17:02.882Z,56.64
2017-05-28T04:17:43.470Z,56.76
2017-05-28T04:18:24.057Z,57.15
2017-05-28T04:19:04.666Z,56.96
2017-05-28T04:19:45.259Z,56.86
2017-05-28T04:20:25.829Z,56.19
2017-05-28T04:21:06.441Z,56.67
2017-05-28T04:21:47.022Z,56.67
2017-05-28T04:22:27.604Z,56.38
2017-05-28T04:23:08.195Z,56.48
2017-05-28T04:23:48.775Z,56.48
2017-05-28T04:24:29.374Z,56.48
2017-05-28T04:25:09.988Z,56.57
2017-05-28T04:25:50.609Z,56.26
2017-05-28T04:26:31.199Z,56.48
2017-05-28T04:27:11.786Z,56.29
2017-05-28T04:27:52.381Z,57.06
2017-05-28T04:28:32.952Z,56.38
2017-05-28T04:29:13.544Z,56.48
2017-05-28T04:29:54.124Z,56.29
2017-05-28T04:30:34.701Z,56.45
2017-05-28T04:31:15.287Z,56.57
2017-05-28T04:31:55.870Z,57.15
2017-05-28T04:32:36.461Z,56.29
2017-05-28T04:33:17.044Z,56.48
2017-05-28T04:33:57.628Z,56.57
2017-05-28T04:34:38.205Z,56.48
2017-05-28T04:35:18.785Z,56.48
2017-05-28T04:35:59.389Z,56.09
2017-05-28T04:36:39.978Z,56.19
2017-05-28T04:37:20.581Z,55.9
2017-05-28T04:38:01.166Z,56.29
2017-05-28T04:38:41.741Z,55.71
2017-05-28T04:39:22.337Z,56
2017-05-28T04:40:02.912Z,56.09
2017-05-28T04:40:43.504Z,56.09
2017-05-28T04:41:24.128Z,55.71
2017-05-28T04:42:04.706Z,55.71
2017-05-28T04:42:45.289Z,56.19
2017-05-28T04:43:25.877Z,55.8
2017-05-28T04:44:06.472Z,55.62
2017-05-28T04:44:47.052Z,55.62
2017-05-28T04:45:27.641Z,55.62
2017-05-28T04:46:08.235Z,55.71
2017-05-28T04:46:48.812Z,55.71
2017-05-28T04:47:29.392Z,55.8
2017-05-28T04:48:09.995Z,55.42
2017-05-28T04:48:50.567Z,55.33
2017-05-28T04:49:31.137Z,55.42
2017-05-28T04:50:11.756Z,55.42
2017-05-28T04:50:52.343Z,55.9
2017-05-28T04:51:33.012Z,55.52
2017-05-28T04:52:13.528Z,56.02
2017-05-28T04:52:54.109Z,55.74
2017-05-28T04:53:34.703Z,55.42
2017-05-28T04:54:15.311Z,55.74
2017-05-28T04:54:55.954Z,55.33
2017-05-28T04:55:36.531Z,55.83
2017-05-28T04:56:17.120Z,55.26
2017-05-28T04:56:57.710Z,55.55
2017-05-28T04:57:38.301Z,55.55
2017-05-28T04:58:18.895Z,55.55
2017-05-28T04:58:59.481Z,55.55
2017-05-28T04:59:40.056Z,55.07
2017-05-28T05:00:20.649Z,54.78
2017-05-28T05:01:01.231Z,54.97
2017-05-28T05:01:41.822Z,54.78
2017-05-28T05:02:22.406Z,54.78
2017-05-28T05:03:02.990Z,54.58
2017-05-28T05:03:43.578Z,54.49
2017-05-28T05:04:24.253Z,54.49
2017-05-28T05:05:04.848Z,54.58
2017-05-28T05:05:45.427Z,54.58
2017-05-28T05:06:26.008Z,54.78
2017-05-28T05:07:06.588Z,54.88
2017-05-28T05:07:47.189Z,54.97
2017-05-28T05:08:27.765Z,55.07
2017-05-28T05:09:08.359Z,54.68
2017-05-28T05:09:48.954Z,54.97
2017-05-28T05:10:29.596Z,54.78
2017-05-28T05:11:10.200Z,54.78
2017-05-28T05:11:50.801Z,54.39
2017-05-28T05:12:31.391Z,54.49
2017-05-28T05:13:11.983Z,54.78
2017-05-28T05:13:52.560Z,54.49
2017-05-28T05:14:33.202Z,54.78
2017-05-28T05:15:13.789Z,54.58
2017-05-28T05:15:54.370Z,54.3
2017-05-28T05:16:34.961Z,54.49
2017-05-28T05:17:15.575Z,54.39
2017-05-28T05:17:56.163Z,54.49
2017-05-28T05:18:36.776Z,54.49
2017-05-28T05:19:17.368Z,54.68
2017-05-28T05:19:57.944Z,54.68
2017-05-28T05:20:38.551Z,54.71
2017-05-28T05:21:19.152Z,54.61
2017-05-28T05:21:59.730Z,54.9
2017-05-28T05:22:40.309Z,54.42
2017-05-28T05:23:20.899Z,54.33
2017-05-28T05:24:01.493Z,54.04
2017-05-28T05:24:42.082Z,54.04
2017-05-28T05:25:22.652Z,54.04
2017-05-28T05:26:03.246Z,53.46
2017-05-28T05:26:43.815Z,53.46
2017-05-28T05:27:24.432Z,53.85
2017-05-28T05:28:05.014Z,53.66
2017-05-28T05:28:45.599Z,53.49
2017-05-28T05:29:26.246Z,53.3
2017-05-28T05:30:06.816Z,53.11
2017-05-28T05:30:47.432Z,53.3
2017-05-28T05:31:27.988Z,53.01
2017-05-28T05:32:08.565Z,52.36
2017-05-28T05:32:49.172Z,52.55
2017-05-28T05:33:29.757Z,51.98
2017-05-28T05:34:10.346Z,51.59
2017-05-28T05:34:50.938Z,51.69
2017-05-28T05:35:31.529Z,51.14
2017-05-28T05:36:12.145Z,51.23
2017-05-28T05:36:52.730Z,51.14
2017-05-28T05:37:33.313Z,51.33
2017-05-28T05:38:13.914Z,50.4
2017-05-28T05:38:54.504Z,49.53
2017-05-28T05:39:35.092Z,49.43
2017-05-28T05:40:15.682Z,49.63
2017-05-28T05:40:56.287Z,49.24
2017-05-28T05:41:36.874Z,49.07
2017-05-28T05:42:17.469Z,48.79
2017-05-28T05:42:58.065Z,48.11
2017-05-28T05:43:38.671Z,48.11
2017-05-28T05:44:19.269Z,47.72
2017-05-28T05:44:59.858Z,47.63
2017-05-28T05:45:40.484Z,47.08
2017-05-28T05:46:21.093Z,46.98
2017-05-28T05:47:01.670Z,47.08
2017-05-28T05:47:42.242Z,47.75
2017-05-28T05:48:22.832Z,47.56
2017-05-28T05:49:03.431Z,46.91
2017-05-28T05:49:44.018Z,46.42
2017-05-28T05:50:24.614Z,45.75
2017-05-28T05:51:05.215Z,45.75
2017-05-28T05:51:45.820Z,45.46
2017-05-28T05:52:26.415Z,45.36
2017-05-28T05:53:06.991Z,45.2
2017-05-28T05:53:47.582Z,44.9
2017-05-28T05:54:28.177Z,45.29
2017-05-28T05:55:08.777Z,45.29
2017-05-28T05:55:49.381Z,44.71
2017-05-28T05:56:30.006Z,44.23
2017-05-28T05:57:10.592Z,44.04
2017-05-28T05:57:51.194Z,43.87
2017-05-28T05:58:31.795Z,44.25
2017-05-28T05:59:12.395Z,44.06
2017-05-28T05:59:52.982Z,44.15
2017-05-28T06:00:33.573Z,44.06
2017-05-28T06:01:14.171Z,43.67
2017-05-28T06:01:54.755Z,43.7
2017-05-28T06:02:35.359Z,43.41
2017-05-28T06:03:15.952Z,43.41
2017-05-28T06:03:56.535Z,43.41
2017-05-28T06:04:37.120Z,42.83
2017-05-28T06:05:17.717Z,43.31
2017-05-28T06:05:58.336Z,42.54
2017-05-28T06:06:38.923Z,42.46
2017-05-28T06:07:19.516Z,42.36
2017-05-28T06:08:00.109Z,42.56
2017-05-28T06:08:40.739Z,42.56
2017-05-28T06:09:21.346Z,42.36
2017-05-28T06:10:01.936Z,42.46
2017-05-28T06:10:42.518Z,42.58
2017-05-28T06:11:23.124Z,41.33
2017-05-28T06:12:03.710Z,41.42
2017-05-28T06:12:44.318Z,41.61
2017-05-28T06:13:24.937Z,42.1
2017-05-28T06:14:05.570Z,41.35
2017-05-28T06:14:46.168Z,41.44
2017-05-28T06:15:26.765Z,40.86
2017-05-28T06:16:07.367Z,40.77
2017-05-28T06:16:47.951Z,40.57
2017-05-28T06:17:28.538Z,39.9
2017-05-28T06:18:09.126Z,40.28
2017-05-28T06:18:49.722Z,40.28
2017-05-28T06:19:30.300Z,39.51
2017-05-28T06:20:10.901Z,39.82
2017-05-28T06:20:51.538Z,39.72
2017-05-28T06:21:32.143Z,39.82
2017-05-28T06:22:12.733Z,39.92
2017-05-28T06:22:53.328Z,39.34
2017-05-28T06:23:33.922Z,37.71
2017-05-28T06:24:14.517Z,37.71
2017-05-28T06:24:55.111Z,37.62
2017-05-28T06:25:35.715Z,37.32
2017-05-28T06:26:16.303Z,36.94
2017-05-28T06:26:56.899Z,36.65
2017-05-28T06:27:37.509Z,37.42
2017-05-28T06:28:18.126Z,36.74
2017-05-28T06:28:58.728Z,37.3
2017-05-28T06:29:39.336Z,37.81
2017-05-28T06:30:19.939Z,37.71
2017-05-28T06:31:00.538Z,37.71
2017-05-28T06:31:41.117Z,37.52
2017-05-28T06:32:21.719Z,37.42
2017-05-28T06:33:02.316Z,36.57
2017-05-28T06:33:42.914Z,36.47
2017-05-28T06:34:23.498Z,36.66
2017-05-28T06:35:04.142Z,36.47
2017-05-28T06:35:44.738Z,36.76
2017-05-28T06:36:25.334Z,37.15
2017-05-28T06:37:05.954Z,37.44
2017-05-28T06:37:46.545Z,36.76
2017-05-28T06:38:27.141Z,37.55
2017-05-28T06:39:07.743Z,37.65
2017-05-28T06:39:48.325Z,36.58
2017-05-28T06:40:28.936Z,35.72
2017-05-28T06:41:09.558Z,36.2
2017-05-28T06:41:50.174Z,36.3
2017-05-28T06:42:30.772Z,35.23
2017-05-28T06:43:11.385Z,35.62
2017-05-28T06:43:51.982Z,35.62
2017-05-28T06:44:32.578Z,35.73
2017-05-28T06:45:13.177Z,34.86
2017-05-28T06:45:53.787Z,34.86
2017-05-28T06:46:34.381Z,34.86
2017-05-28T06:47:14.999Z,34.86
2017-05-28T06:47:55.618Z,34.86
2017-05-28T06:48:36.211Z,34.96
2017-05-28T06:49:16.848Z,35.15
2017-05-28T06:49:57.447Z,34.77
2017-05-28T06:50:38.052Z,34.57
2017-05-28T06:51:18.668Z,33.8
2017-05-28T06:51:59.277Z,33.7
2017-05-28T06:52:39.863Z,34.19
2017-05-28T06:53:20.470Z,34.78
2017-05-28T06:54:01.074Z,33.99
2017-05-28T06:54:41.667Z,33.91
2017-05-28T06:55:22.273Z,33.81
2017-05-28T06:56:02.891Z,34.38
2017-05-28T06:56:43.474Z,33.72
2017-05-28T06:57:24.080Z,33.04
2017-05-28T06:58:04.670Z,33.23
2017-05-28T06:58:45.267Z,33.23
2017-05-28T06:59:25.861Z,33.72
2017-05-28T07:00:06.463Z,33.42
2017-05-28T07:00:47.061Z,33.72
2017-05-28T07:01:27.654Z,33.72
2017-05-28T07:02:08.249Z,33.91
2017-05-28T07:02:48.850Z,34.39
2017-05-28T07:03:29.439Z,34.49
2017-05-28T07:04:10.050Z,33.62
2017-05-28T07:04:50.651Z,33.42
2017-05-28T07:05:31.246Z,33.52
2017-05-28T07:06:11.866Z,33.44
2017-05-28T07:06:52.445Z,32.76
2017-05-28T07:07:33.033Z,32.57
2017-05-28T07:08:13.647Z,33.44
2017-05-28T07:08:54.286Z,33.44
2017-05-28T07:09:34.862Z,33.34
2017-05-28T07:10:15.486Z,33.25
2017-05-28T07:10:56.070Z,33.44
2017-05-28T07:11:36.674Z,32.86
2017-05-28T07:12:17.271Z,32.96
2017-05-28T07:12:57.953Z,33.15
2017-05-28T07:13:38.506Z,32.86
2017-05-28T07:14:19.110Z,32.37
2017-05-28T07:14:59.705Z,32.47
2017-05-28T07:15:40.315Z,32.37
2017-05-28T07:16:20.940Z,32.37
2017-05-28T07:17:01.548Z,32.57
2017-05-28T07:17:42.173Z,32.28
2017-05-28T07:18:22.779Z,32.57
2017-05-28T07:19:03.380Z,32.76
2017-05-28T07:19:43.970Z,33.06
2017-05-28T07:20:24.566Z,33.34
2017-05-28T07:21:05.157Z,33.15
2017-05-28T07:21:45.755Z,32.37
2017-05-28T07:22:26.361Z,32.67
2017-05-28T07:23:06.958Z,32.47
2017-05-28T07:23:47.577Z,32.37
2017-05-28T07:24:28.195Z,32.96
2017-05-28T07:25:08.791Z,33.26
2017-05-28T07:25:49.402Z,33.07
2017-05-28T07:26:30.002Z,32.97
2017-05-28T07:27:10.607Z,32.68
2017-05-28T07:27:51.241Z,32.5
2017-05-28T07:28:31.843Z,31.82
2017-05-28T07:29:12.451Z,31.63
2017-05-28T07:29:53.074Z,31.82
2017-05-28T07:30:33.678Z,31.53
2017-05-28T07:31:14.292Z,31.44
2017-05-28T07:31:54.901Z,31.44
2017-05-28T07:32:35.518Z,31.05
2017-05-28T07:33:16.113Z,30.85
2017-05-28T07:33:56.732Z,31.44
2017-05-28T07:34:37.344Z,31.34
2017-05-28T07:35:17.947Z,31.34
2017-05-28T07:35:58.558Z,32.02
2017-05-28T07:36:39.168Z,31.44
2017-05-28T07:37:19.793Z,31.34
2017-05-28T07:38:00.403Z,31.44
2017-05-28T07:38:41.024Z,31.63
2017-05-28T07:39:21.635Z,31.82
2017-05-28T07:40:02.275Z,31.53
2017-05-28T07:40:42.893Z,31.35
2017-05-28T07:41:23.515Z,31.65
2017-05-28T07:42:04.113Z,32.42
2017-05-28T07:42:44.726Z,32.52
2017-05-28T07:43:25.356Z,31.94
2017-05-28T07:44:05.963Z,31.84
2017-05-28T07:44:46.585Z,31.45
2017-05-28T07:45:27.188Z,31.65
2017-05-28T07:46:07.796Z,31.07
2017-05-28T07:46:48.409Z,30.48
2017-05-28T07:47:29.031Z,31.45
2017-05-28T07:48:09.637Z,31.84
2017-05-28T07:48:50.237Z,31.55
2017-05-28T07:49:30.875Z,31.26
2017-05-28T07:50:11.485Z,31.84
2017-05-28T07:50:52.092Z,31.55
2017-05-28T07:51:32.710Z,31.55
2017-05-28T07:52:13.318Z,31.45
2017-05-28T07:52:53.936Z,31.26
2017-05-28T07:53:34.549Z,31.76
2017-05-28T07:54:15.168Z,31.08
2017-05-28T07:54:55.776Z,30.98
2017-05-28T07:55:36.387Z,30.5
2017-05-28T07:56:17.014Z,31.08
2017-05-28T07:56:57.620Z,31.47
2017-05-28T07:57:38.240Z,31.95
2017-05-28T07:58:18.896Z,31.47
2017-05-28T07:58:59.535Z,31.76
2017-05-28T07:59:40.156Z,31.95
2017-05-28T08:00:20.774Z,31.47
2017-05-28T08:01:01.382Z,31.27
2017-05-28T08:01:41.993Z,30.79
2017-05-28T08:02:22.596Z,30.4
2017-05-28T08:03:03.215Z,30.69
2017-05-28T08:03:43.818Z,30.59
2017-05-28T08:04:24.417Z,30.69
2017-05-28T08:05:05.021Z,30.88
2017-05-28T08:05:45.617Z,30.5
2017-05-28T08:06:26.227Z,30.5
2017-05-28T08:07:06.819Z,30.88
2017-05-28T08:07:47.423Z,30.88
2017-05-28T08:08:28.021Z,30.69
2017-05-28T08:09:08.645Z,30.88
2017-05-28T08:09:49.244Z,31.27
2017-05-28T08:10:29.855Z,31.47
2017-05-28T08:11:10.458Z,31.76
2017-05-28T08:11:51.055Z,31.18
2017-05-28T08:12:31.662Z,30.79
2017-05-28T08:13:12.254Z,31.37
2017-05-28T08:13:52.851Z,31.37
2017-05-28T08:14:33.467Z,31.76
2017-05-28T08:15:14.073Z,31.57
2017-05-28T08:15:54.677Z,31.57
2017-05-28T08:16:35.279Z,30.4
2017-05-28T08:17:15.889Z,31.47
2017-05-28T08:17:56.542Z,31.57
2017-05-28T08:18:37.068Z,31.76
2017-05-28T08:19:17.655Z,31.47
2017-05-28T08:19:58.271Z,31.58
2017-05-28T08:20:38.865Z,31.37
2017-05-28T08:21:19.447Z,31.87
2017-05-28T08:22:00.069Z,32.65
2017-05-28T08:22:40.685Z,31.48
2017-05-28T08:23:21.286Z,31.38
2017-05-28T08:24:01.964Z,31.38
2017-05-28T08:24:42.562Z,31.77
2017-05-28T08:25:23.156Z,31.68
2017-05-28T08:26:03.748Z,30.9
2017-05-28T08:26:44.338Z,31
2017-05-28T08:27:24.933Z,30.71
2017-05-28T08:28:05.527Z,31.38
2017-05-28T08:28:46.133Z,31
2017-05-28T08:29:26.741Z,30.41
2017-05-28T08:30:07.327Z,30.61
2017-05-28T08:30:47.959Z,31.38
2017-05-28T08:31:28.535Z,31.58
2017-05-28T08:32:09.154Z,31.38
2017-05-28T08:32:49.767Z,32.07
2017-05-28T08:33:30.366Z,32.65
2017-05-28T08:34:10.984Z,31.68
2017-05-28T08:34:51.595Z,30.61
2017-05-28T08:35:32.197Z,30.71
2017-05-28T08:36:12.792Z,31
2017-05-28T08:36:53.381Z,31.29
2017-05-28T08:37:34.036Z,31.1
2017-05-28T08:38:14.592Z,30.61
2017-05-28T08:38:55.198Z,30.61
2017-05-28T08:39:35.783Z,30.61
2017-05-28T08:40:16.379Z,30.9
2017-05-28T08:40:56.980Z,31.85
2017-05-28T08:41:37.585Z,32.65
2017-05-28T08:42:18.182Z,31.87
2017-05-28T08:42:58.770Z,31.58
2017-05-28T08:43:39.364Z,31.48
2017-05-28T08:44:19.957Z,31.87
2017-05-28T08:45:00.552Z,31.87